ZSSS/SHA METAR and TAF weather

Enter ICAO airport designator
Station Type Date Time Source
ZSSS METAR 2019/04/23 00:30 UTC NOAA

ZSSS 230030Z 28004MPS 250V320 6000 BKN007 21/20 Q1008 BECMG TL0200 BKN010


Station Type Date Time Source
ZSSS Decoded METAR 2019/04/23 00:30 UTC NOAA

Shanghai / Hongqiao, China (ZSSS) 31-10N 121-26E 3M
Apr 22, 2019 - 08:30 PM EDT / 2019.04.23 0030 UTC
Wind: from the W (280 degrees) at 9 MPH (8 KT) (direction variable):0
Visibility: 3 mile(s):0
Sky conditions: mostly cloudy
Temperature: 69 F (21 C)
Dew Point: 68 F (20 C)
Relative Humidity: 94%
Pressure (altimeter): 29.77 in. Hg (1008 hPa)
ob: ZSSS 230030Z 28004MPS 250V320 6000 BKN007 21/20 Q1008 BECMG TL0200 BKN010
cycle: 0

Station Type Date Time Source
ZSSS TAF 2019/04/22 18:03 UTC NOAA

TAF ZSSS 221516Z 2218/2318 13004MPS 2000 -RA BR BKN005 TX28/2306Z TN18/2221Z
TEMPO 2220/2224 0600 FG BKN002
BECMG 2301/2302 30004MPS 3500 BR BKN010

Example: see airport list